Time;durP1;ratioP1;P1;durP2;ratioP2;P2;SDS_P1;SDS_P2;PMS_P1;PMS_P2;Temp;Humidity;BMP_temperature;BMP_pressure;BME280_temperature;BME280_humidity;BME280_pressure;Samples;Min_cycle;Max_cycle;Signal;HPM_P1;HPM_P2
2022/06/05 00:00:21;;;;;;;8.57;6.63;;;;;;;16.34;100.00;96743.72;4995996;28;20053;-75
2022/06/05 00:02:49;;;;;;;8.60;6.38;;;;;;;16.29;100.00;96745.63;4998311;28;20052;-76
2022/06/05 00:05:22;;;;;;;11.30;6.07;;;;;;;16.28;100.00;96741.31;4996585;28;20669;-73
2022/06/05 00:08:16;;;;;;;10.07;6.90;;;;;;;16.26;100.00;96748.88;4993803;28;20042;-74
2022/06/05 00:11:02;;;;;;;10.98;6.78;;;;;;;16.27;100.00;96745.09;4996175;28;20041;-73
2022/06/05 00:13:52;;;;;;;15.27;7.45;;;;;;;16.22;100.00;96750.53;4997242;28;20050;-72
2022/06/05 00:16:28;;;;;;;14.63;7.72;;;;;;;16.23;100.00;96758.34;4997493;28;20042;-73
2022/06/05 00:18:56;;;;;;;9.18;6.50;;;;;;;16.22;100.00;96756.72;4993596;28;20045;-73
2022/06/05 00:21:21;;;;;;;9.15;6.65;;;;;;;16.19;100.00;96741.09;4996576;28;20389;-72
2022/06/05 00:23:47;;;;;;;10.63;6.80;;;;;;;16.25;100.00;96749.94;4993835;28;20033;-74
2022/06/05 00:26:20;;;;;;;7.95;6.68;;;;;;;16.20;100.00;96758.91;4996560;28;20467;-73
2022/06/05 00:28:53;;;;;;;9.43;7.03;;;;;;;16.15;100.00;96769.72;4995823;28;20473;-73
2022/06/05 00:31:25;;;;;;;9.45;7.10;;;;;;;16.07;100.00;96768.38;4997516;28;20492;-74
2022/06/05 00:33:51;;;;;;;12.02;7.30;;;;;;;16.00;100.00;96767.88;4994498;28;20144;-74
2022/06/05 00:36:26;;;;;;;10.65;7.10;;;;;;;15.97;100.00;96775.72;4997190;28;20470;-73
2022/06/05 00:39:13;;;;;;;14.75;7.75;;;;;;;15.97;100.00;96786.53;4994728;28;20345;-75
2022/06/05 00:41:55;;;;;;;9.23;6.53;;;;;;;15.92;100.00;96784.63;5010116;28;20053;-73
2022/06/05 00:44:42;;;;;;;10.13;6.97;;;;;;;15.91;100.00;96777.63;4997589;28;20038;-73
2022/06/05 00:47:11;;;;;;;10.88;7.43;;;;;;;15.90;100.00;96778.72;4994861;28;20046;-74
2022/06/05 00:49:41;;;;;;;11.77;8.45;;;;;;;15.86;100.00;96770.34;4993712;28;20449;-75
2022/06/05 00:52:10;;;;;;;10.43;8.55;;;;;;;15.83;100.00;96768.19;4993766;28;20041;-74
2022/06/05 00:54:36;;;;;;;11.13;7.80;;;;;;;15.83;100.00;96764.69;4994415;28;20546;-73
2022/06/05 00:57:07;;;;;;;10.43;7.43;;;;;;;15.84;100.00;96771.72;4995659;28;20046;-73
2022/06/05 00:59:32;;;;;;;9.90;7.73;;;;;;;15.86;100.00;96773.03;4995767;28;20046;-74
2022/06/05 01:01:58;;;;;;;9.98;8.30;;;;;;;15.85;100.00;96763.34;4996368;28;20818;-75
2022/06/05 01:04:23;;;;;;;9.82;7.90;;;;;;;15.80;100.00;96760.66;4993821;28;20041;-75
2022/06/05 01:06:50;;;;;;;11.90;8.30;;;;;;;15.84;100.00;96758.22;4996122;28;20060;-73
2022/06/05 01:09:16;;;;;;;10.68;8.32;;;;;;;15.85;100.00;96752.53;4994715;28;20042;-73
2022/06/05 01:11:56;;;;;;;11.10;7.78;;;;;;;15.84;100.00;96744.72;4994823;28;20379;-73
2022/06/05 01:14:31;;;;;;;9.60;8.00;;;;;;;15.78;100.00;96746.63;4994775;28;20030;-74
2022/06/05 01:17:10;;;;;;;11.63;8.23;;;;;;;15.75;100.00;96741.78;4996695;28;20038;-73
2022/06/05 01:19:51;;;;;;;16.13;7.82;;;;;;;15.72;100.00;96736.94;4994652;28;20041;-74
2022/06/05 01:22:31;;;;;;;11.05;7.65;;;;;;;15.67;100.00;96728.06;4994478;28;20109;-74
2022/06/05 01:25:36;;;;;;;12.43;8.65;;;;;;;15.70;100.00;96728.31;4995293;28;20121;-73
2022/06/05 01:28:08;;;;;;;11.50;7.75;;;;;;;15.70;100.00;96727.50;4995540;28;20437;-76
2022/06/05 01:30:44;;;;;;;11.48;7.93;;;;;;;15.74;100.00;96723.19;4998132;28;20046;-73
2022/06/05 01:33:15;;;;;;;10.13;8.23;;;;;;;15.71;100.00;96724.53;4994500;28;20050;-73
2022/06/05 01:35:55;;;;;;;8.93;6.95;;;;;;;15.75;100.00;96716.69;4995489;28;20045;-73
2022/06/05 01:38:46;;;;;;;11.40;8.17;;;;;;;15.74;100.00;96718.59;4994194;28;20042;-74
2022/06/05 01:41:18;;;;;;;10.55;7.75;;;;;;;15.72;100.00;96709.97;4991521;28;20065;-73
2022/06/05 01:43:48;;;;;;;12.38;8.52;;;;;;;15.71;100.00;96716.44;4994179;28;20038;-74
2022/06/05 01:46:17;;;;;;;12.05;7.55;;;;;;;15.71;100.00;96704.81;4996402;28;20030;-73
2022/06/05 01:48:50;;;;;;;12.48;8.27;;;;;;;15.68;100.00;96700.81;4996811;28;20132;-74
2022/06/05 01:51:43;;;;;;;11.63;7.60;;;;;;;15.69;100.00;96694.31;4995687;28;20590;-75
2022/06/05 01:54:15;;;;;;;11.90;7.63;;;;;;;15.70;100.00;96695.94;4992990;28;20123;-73
2022/06/05 01:56:47;;;;;;;11.52;7.97;;;;;;;15.69;100.00;96693.50;4995809;28;20458;-74
2022/06/05 01:59:31;;;;;;;13.75;8.57;;;;;;;15.65;100.00;96679.78;4994174;28;20053;-72
2022/06/05 02:01:59;;;;;;;9.90;8.02;;;;;;;15.63;100.00;96668.44;4995270;28;20303;-75
2022/06/05 02:04:43;;;;;;;10.32;8.00;;;;;;;15.63;100.00;96663.03;4994056;28;20034;-75
2022/06/05 02:07:29;;;;;;;9.77;7.75;;;;;;;15.65;100.00;96654.69;4997201;28;20058;-75
2022/06/05 02:10:03;;;;;;;10.93;8.32;;;;;;;15.66;100.00;96634.72;4995066;28;20046;-74
2022/06/05 02:12:29;;;;;;;13.88;9.20;;;;;;;15.66;100.00;96619.34;4995674;28;20124;-73
2022/06/05 02:14:55;;;;;;;10.48;7.72;;;;;;;15.69;100.00;96612.59;4995345;28;20814;-73
2022/06/05 02:17:21;;;;;;;13.80;8.55;;;;;;;15.68;100.00;96603.69;4996007;28;20045;-74
2022/06/05 02:19:47;;;;;;;10.25;8.00;;;;;;;15.67;100.00;96594.00;4995875;28;20050;-76
2022/06/05 02:22:25;;;;;;;10.00;7.95;;;;;;;15.66;100.00;96578.91;4991597;28;20049;-73
2022/06/05 02:24:54;;;;;;;10.80;8.45;;;;;;;15.67;100.00;96575.09;4994827;28;20104;-72
2022/06/05 02:27:22;;;;;;;9.85;8.02;;;;;;;15.65;100.00;96563.81;4992749;28;20053;-75
2022/06/05 02:29:48;;;;;;;11.20;8.77;;;;;;;15.68;100.00;96549.75;4992954;28;20116;-73
2022/06/05 02:32:29;;;;;;;12.60;8.68;;;;;;;15.73;100.00;96552.41;4992168;28;20042;-75
2022/06/05 02:35:29;;;;;;;14.18;8.23;;;;;;;15.73;100.00;96549.72;4995402;28;20053;-73
2022/06/05 02:37:58;;;;;;;13.45;9.10;;;;;;;15.71;100.00;96549.16;4987548;28;20049;-73
2022/06/05 02:40:46;;;;;;;11.07;8.57;;;;;;;15.73;100.00;96540.81;4995942;28;20038;-74
2022/06/05 02:43:17;;;;;;;12.00;9.50;;;;;;;15.75;100.00;96534.06;4992927;28;20210;-73
2022/06/05 02:46:06;;;;;;;11.70;8.88;;;;;;;15.69;100.00;96521.69;4994799;28;20072;-73
2022/06/05 02:48:37;;;;;;;11.35;8.88;;;;;;;15.71;100.00;96507.91;4993818;28;20508;-73
2022/06/05 02:51:23;;;;;;;;;;;;;;;15.75;100.00;96482.00;4997694;28;20053;-76
2022/06/05 02:53:57;;;;;;;13.30;9.32;;;;;;;15.75;100.00;96482.00;4997546;28;20389;-76
2022/06/05 02:56:26;;;;;;;14.93;9.05;;;;;;;15.74;100.00;96470.41;4998377;28;20052;-73
2022/06/05 02:58:53;;;;;;;13.73;9.07;;;;;;;15.75;100.00;96455.03;4996026;28;20176;-74
2022/06/05 03:04:07;;;;;;;11.43;8.68;;;;;;;15.63;100.00;96468.03;4998662;28;20042;-73
2022/06/05 03:06:33;;;;;;;11.07;8.75;;;;;;;15.60;100.00;96453.19;4999720;28;20123;-76
2022/06/05 03:08:59;;;;;;;13.18;10.10;;;;;;;15.62;100.00;96451.06;4997921;28;20037;-73
2022/06/05 03:11:24;;;;;;;14.02;8.80;;;;;;;15.61;100.00;96465.63;4998070;28;20030;-75
2022/06/05 03:13:50;;;;;;;14.10;9.38;;;;;;;15.54;100.00;96468.59;4998138;28;20046;-75
2022/06/05 03:16:16;;;;;;;12.02;9.13;;;;;;;15.53;100.00;96472.38;4998709;28;20168;-73
2022/06/05 03:18:41;;;;;;;19.20;9.63;;;;;;;15.47;100.00;96465.41;4996260;28;20204;-73
2022/06/05 03:21:07;;;;;;;11.93;9.05;;;;;;;15.50;100.00;96458.69;4998071;28;20049;-73
2022/06/05 03:23:32;;;;;;;14.60;10.05;;;;;;;15.44;100.00;96449.81;4995759;28;20053;-74
2022/06/05 03:25:59;;;;;;;12.50;10.32;;;;;;;15.41;100.00;96444.97;4997834;28;20231;-74
2022/06/05 03:28:25;;;;;;;14.18;9.23;;;;;;;15.43;100.00;96437.41;4996631;28;20088;-73
2022/06/05 03:30:51;;;;;;;14.13;9.60;;;;;;;15.38;100.00;96436.63;4996701;28;20038;-73
2022/06/05 03:33:17;;;;;;;13.40;9.98;;;;;;;15.37;100.00;96437.72;4997887;28;20520;-73
2022/06/05 03:35:45;;;;;;;13.48;10.25;;;;;;;15.32;100.00;96435.84;4999220;28;20038;-75
2022/06/05 03:38:13;;;;;;;17.02;10.02;;;;;;;15.35;100.00;96440.69;5000832;28;20042;-73
2022/06/05 03:40:44;;;;;;;13.88;10.20;;;;;;;15.27;100.00;96455.56;5003120;28;20038;-75
2022/06/05 03:43:10;;;;;;;15.68;10.63;;;;;;;15.27;100.00;96470.94;5001156;28;20116;-75
2022/06/05 03:45:36;;;;;;;13.10;10.95;;;;;;;15.25;100.00;96481.16;4997919;28;20045;-75
2022/06/05 03:48:02;;;;;;;12.38;8.48;;;;;;;15.19;100.00;96491.19;4999049;28;20401;-73
2022/06/05 03:50:27;;;;;;;13.45;10.68;;;;;;;15.22;100.00;96471.75;4999271;28;20535;-76
2022/06/05 03:52:53;;;;;;;17.25;10.18;;;;;;;15.21;100.00;96466.66;4997115;28;20045;-76
2022/06/05 03:55:21;;;;;;;13.85;10.45;;;;;;;15.30;100.00;96471.19;4997240;28;20494;-73
2022/06/05 03:57:48;;;;;;;14.27;10.38;;;;;;;15.32;100.00;96471.69;4998528;28;20643;-74
2022/06/05 04:00:16;;;;;;;15.85;11.13;;;;;;;15.35;100.00;96483.84;4990999;28;20457;-73
2022/06/05 04:02:42;;;;;;;14.65;11.05;;;;;;;15.31;100.00;96491.66;4997820;28;20033;-73
2022/06/05 04:05:11;;;;;;;16.33;10.52;;;;;;;15.30;100.00;96498.13;4998425;28;20972;-73
2022/06/05 04:07:37;;;;;;;15.05;10.27;;;;;;;15.27;100.00;96508.69;4994986;28;20038;-75
2022/06/05 04:10:03;;;;;;;12.48;9.98;;;;;;;15.26;100.00;96494.41;4995214;28;20034;-76
2022/06/05 04:12:29;;;;;;;20.08;11.18;;;;;;;15.27;100.00;96501.41;4995998;28;20494;-73
2022/06/05 04:14:54;;;;;;;16.83;10.57;;;;;;;15.23;100.00;96499.50;4998344;28;20034;-73
2022/06/05 04:17:19;;;;;;;16.83;11.23;;;;;;;15.31;100.00;96504.31;4995819;28;20034;-73
2022/06/05 04:19:45;;;;;;;14.75;10.55;;;;;;;15.35;100.00;96507.28;4996351;28;20499;-73
2022/06/05 04:22:10;;;;;;;17.45;11.45;;;;;;;15.40;100.00;96507.25;4997413;28;20044;-73
2022/06/05 04:24:37;;;;;;;17.35;10.98;;;;;;;15.39;100.00;96511.03;4998518;28;20500;-73
2022/06/05 04:27:03;;;;;;;19.10;9.57;;;;;;;15.41;100.00;96511.56;4997108;28;20128;-76
2022/06/05 04:29:28;;;;;;;13.32;9.73;;;;;;;15.44;100.00;96524.50;4993847;28;20033;-73
2022/06/05 04:31:54;;;;;;;18.35;10.88;;;;;;;15.53;100.00;96528.22;5016366;28;20042;-74
2022/06/05 04:34:22;;;;;;;14.93;11.15;;;;;;;15.56;100.00;96522.25;4995971;28;20800;-76
2022/06/05 04:36:48;;;;;;;17.00;11.55;;;;;;;15.60;100.00;96526.81;4993958;28;20498;-73
2022/06/05 04:39:15;;;;;;;20.02;11.30;;;;;;;15.68;100.00;96530.84;4995003;28;20251;-73
2022/06/05 04:41:41;;;;;;;14.45;11.68;;;;;;;15.75;100.00;96539.44;4997251;28;20038;-73
2022/06/05 04:44:10;;;;;;;13.10;9.95;;;;;;;15.73;100.00;96533.53;4997059;28;20052;-73
2022/06/05 04:46:36;;;;;;;15.57;10.35;;;;;;;15.77;100.00;96544.56;4996435;28;20026;-74
2022/06/05 04:49:01;;;;;;;13.52;10.18;;;;;;;15.82;100.00;96539.94;4996713;28;20073;-73
2022/06/05 04:51:27;;;;;;;15.80;11.45;;;;;;;15.84;100.00;96537.78;4996989;28;20099;-73
2022/06/05 04:53:54;;;;;;;15.70;10.35;;;;;;;15.88;100.00;96538.84;4995910;28;20378;-73
2022/06/05 04:56:24;;;;;;;14.10;11.05;;;;;;;16.03;100.00;96542.50;4996000;28;20053;-75
2022/06/05 04:58:50;;;;;;;17.48;11.07;;;;;;;16.06;100.00;96547.34;4993877;28;20049;-73
2022/06/05 05:01:21;;;;;;;16.88;11.40;;;;;;;16.05;100.00;96551.94;4994988;28;20046;-73
2022/06/05 05:03:47;;;;;;;15.90;11.88;;;;;;;16.08;100.00;96551.38;4994985;28;20119;-74
2022/06/05 05:06:13;;;;;;;17.63;10.13;;;;;;;16.07;100.00;96548.97;5011110;28;20050;-73
2022/06/05 05:08:39;;;;;;;13.30;9.95;;;;;;;16.07;100.00;96541.66;4994999;28;20042;-76
2022/06/05 05:11:05;;;;;;;13.95;10.90;;;;;;;16.11;100.00;96547.31;4996417;28;20041;-75
2022/06/05 05:13:31;;;;;;;16.70;10.70;;;;;;;16.26;100.00;96530.97;4996154;28;20039;-74
2022/06/05 05:15:56;;;;;;;14.25;10.38;;;;;;;16.19;100.00;96529.72;4994922;28;20104;-73
2022/06/05 05:18:23;;;;;;;14.82;8.73;;;;;;;16.13;100.00;96537.84;4992968;28;20120;-74
2022/06/05 05:20:49;;;;;;;15.48;10.60;;;;;;;16.15;100.00;96556.44;4997076;28;20117;-73
2022/06/05 05:23:14;;;;;;;13.45;9.23;;;;;;;16.14;100.00;96565.63;4994912;28;20302;-72
2022/06/05 05:25:40;;;;;;;12.57;9.35;;;;;;;16.09;100.00;96546.78;4995206;28;20097;-74
2022/06/05 05:28:06;;;;;;;14.45;10.95;;;;;;;16.13;100.00;96554.03;4995463;28;20385;-74
2022/06/05 05:30:33;;;;;;;12.95;9.63;;;;;;;16.21;100.00;96549.94;5012449;28;20467;-75
2022/06/05 05:32:59;;;;;;;13.00;9.23;;;;;;;16.15;100.00;96546.47;4995747;28;20446;-73
2022/06/05 05:35:24;;;;;;;19.25;9.65;;;;;;;16.12;100.00;96540.84;4994736;28;20030;-74
2022/06/05 05:37:50;;;;;;;15.43;10.63;;;;;;;16.16;100.00;96539.97;4996135;28;20448;-73
2022/06/05 05:43:00;;;;;;;13.57;10.88;;;;;;;16.30;100.00;96523.94;4994245;28;20094;-74
2022/06/05 05:45:25;;;;;;;13.40;10.23;;;;;;;16.28;100.00;96522.63;4992824;28;20113;-74
2022/06/05 05:47:51;;;;;;;14.18;11.27;;;;;;;16.28;100.00;96509.94;4996262;28;20100;-73
2022/06/05 05:50:17;;;;;;;14.52;10.80;;;;;;;16.19;100.00;96517.03;4996123;28;20046;-75
2022/06/05 05:52:44;;;;;;;17.52;11.38;;;;;;;16.14;100.00;96528.66;4996876;28;20065;-74
2022/06/05 05:55:16;;;;;;;14.73;11.05;;;;;;;16.11;100.00;96518.44;4995070;28;20034;-74
2022/06/05 05:57:42;;;;;;;18.83;11.20;;;;;;;16.11;100.00;96512.22;4993126;28;20049;-74
2022/06/05 06:00:11;;;;;;;19.67;11.65;;;;;;;16.18;100.00;96518.09;4994830;28;20041;-74
2022/06/05 06:02:38;;;;;;;24.20;12.88;;;;;;;16.22;100.00;96502.94;4991929;28;20176;-74
2022/06/05 06:05:04;;;;;;;14.80;10.55;;;;;;;16.13;100.00;96504.66;4993216;28;20038;-72
2022/06/05 06:07:29;;;;;;;16.88;12.18;;;;;;;16.18;100.00;96493.78;4995909;28;20129;-75
2022/06/05 06:09:55;;;;;;;13.88;10.65;;;;;;;16.20;100.00;96488.94;4997042;28;20038;-75
2022/06/05 06:12:23;;;;;;;15.30;11.57;;;;;;;16.25;100.00;96488.88;4995727;28;20486;-73
2022/06/05 06:14:51;;;;;;;16.10;11.27;;;;;;;16.26;100.00;96482.38;4995853;28;20286;-74
2022/06/05 06:17:17;;;;;;;14.63;11.07;;;;;;;16.30;100.00;96478.03;4995206;28;20081;-73
2022/06/05 06:19:43;;;;;;;13.75;9.82;;;;;;;16.23;100.00;96464.06;4996780;28;20045;-74
2022/06/05 06:22:09;;;;;;;16.88;11.60;;;;;;;16.41;100.00;96449.84;4994386;28;20109;-73
2022/06/05 06:24:34;;;;;;;14.52;10.73;;;;;;;16.44;100.00;96432.28;4996964;28;20139;-75
2022/06/05 06:27:02;;;;;;;16.77;11.13;;;;;;;16.49;100.00;96436.81;4996163;28;20037;-76
2022/06/05 06:29:28;;;;;;;14.18;9.55;;;;;;;16.29;100.00;96433.22;4999737;28;20412;-74
2022/06/05 06:31:53;;;;;;;14.80;11.20;;;;;;;16.33;100.00;96436.97;4652280;28;9999625;-73
2022/06/05 06:34:19;;;;;;;17.40;10.95;;;;;;;16.52;100.00;96422.75;4309418;28;9999751;-74
2022/06/05 06:36:44;;;;;;;14.43;10.48;;;;;;;16.54;100.00;96424.06;5003081;28;20041;-75
2022/06/05 06:39:10;;;;;;;15.38;11.55;;;;;;;16.58;100.00;96418.91;4999621;28;20889;-74
2022/06/05 06:41:36;;;;;;;19.20;11.45;;;;;;;16.83;100.00;96413.22;5000627;28;20515;-75
2022/06/05 06:44:03;;;;;;;13.65;10.63;;;;;;;16.86;100.00;96414.53;4998755;28;20041;-76
2022/06/05 06:46:30;;;;;;;17.02;11.75;;;;;;;17.07;100.00;96409.69;4994246;28;20046;-74
2022/06/05 06:48:55;;;;;;;14.63;11.57;;;;;;;17.11;100.00;96406.09;4997608;28;20820;-75
2022/06/05 06:51:21;;;;;;;17.10;10.70;;;;;;;17.29;100.00;96398.28;5019394;28;20046;-75
2022/06/05 06:53:48;;;;;;;17.10;10.90;;;;;;;17.32;100.00;96389.59;4998925;28;20119;-74
2022/06/05 06:56:22;;;;;;;14.75;11.20;;;;;;;17.50;100.00;96377.94;4998165;28;20077;-73
2022/06/05 06:58:47;;;;;;;12.38;9.80;;;;;;;17.70;100.00;96369.53;4996960;28;20069;-73
2022/06/05 07:01:13;;;;;;;13.30;10.07;;;;;;;17.91;100.00;96364.59;4996238;28;20165;-75
2022/06/05 07:03:39;;;;;;;16.33;10.23;;;;;;;18.14;100.00;96364.75;4999904;28;20049;-73
2022/06/05 07:06:09;;;;;;;13.90;10.10;;;;;;;17.92;100.00;96355.38;4994653;28;20360;-74
2022/06/05 07:08:34;;;;;;;12.77;10.57;;;;;;;18.16;100.00;96351.69;4998247;28;20122;-75
2022/06/05 07:11:00;;;;;;;13.32;10.07;;;;;;;18.12;100.00;96347.97;4995127;28;20097;-74
2022/06/05 07:13:26;;;;;;;16.65;10.55;;;;;;;18.10;100.00;96349.06;4994455;28;20053;-73
2022/06/05 07:15:52;;;;;;;14.50;9.25;;;;;;;17.82;100.00;96352.84;4999787;28;20038;-73
2022/06/05 07:18:18;;;;;;;15.88;10.05;;;;;;;17.93;100.00;96350.75;4996301;28;20049;-73
2022/06/05 07:20:45;;;;;;;13.65;10.63;;;;;;;17.77;100.00;96361.84;4997359;28;20117;-74
2022/06/05 07:23:11;;;;;;;13.57;9.45;;;;;;;17.77;100.00;96356.44;5018533;28;20113;-74
2022/06/05 07:25:43;;;;;;;13.05;11.02;;;;;;;17.74;100.00;96359.75;5000177;28;20721;-73
2022/06/05 07:28:09;;;;;;;14.25;10.45;;;;;;;17.84;100.00;96364.19;4995806;28;20057;-75
2022/06/05 07:30:34;;;;;;;17.05;11.40;;;;;;;17.66;100.00;96373.88;4995394;28;20409;-73
2022/06/05 07:33:00;;;;;;;15.45;10.65;;;;;;;17.57;100.00;96372.16;4994746;28;20042;-74
2022/06/05 07:35:26;;;;;;;14.75;10.32;;;;;;;17.71;100.00;96364.94;4993870;28;20041;-73
2022/06/05 07:37:51;;;;;;;15.20;10.07;;;;;;;17.43;100.00;96364.81;4996522;28;20049;-72
2022/06/05 07:40:16;;;;;;;17.35;10.98;;;;;;;17.35;100.00;96356.53;4996182;28;20056;-72
2022/06/05 07:42:44;;;;;;;14.18;11.35;;;;;;;17.40;100.00;96378.91;4997251;28;20092;-72
2022/06/05 07:45:14;;;;;;;16.88;11.63;;;;;;;17.58;100.00;96374.56;4994882;28;20224;-74
2022/06/05 07:47:41;;;;;;;13.98;11.25;;;;;;;17.48;100.00;96374.72;4992697;28;20046;-73
2022/06/05 07:50:07;;;;;;;15.65;11.73;;;;;;;17.59;100.00;96372.66;4993622;28;20056;-74
2022/06/05 07:55:17;;;;;;;14.35;11.40;;;;;;;18.32;100.00;96391.72;4994290;28;20046;-72
2022/06/05 07:57:42;;;;;;;13.85;10.65;;;;;;;18.54;100.00;96403.81;4993414;28;20122;-74
2022/06/05 08:00:11;;;;;;;15.52;10.70;;;;;;;18.36;100.00;96409.00;4993647;28;20343;-74
2022/06/05 08:02:37;;;;;;;15.60;10.82;;;;;;;17.94;100.00;96410.00;4990796;28;20056;-74
2022/06/05 08:05:04;;;;;;;15.38;11.38;;;;;;;17.99;100.00;96399.09;4994903;28;20042;-72
2022/06/05 08:07:31;;;;;;;14.45;10.98;;;;;;;18.00;100.00;96408.84;4997215;28;20062;-72
2022/06/05 08:09:58;;;;;;;18.30;11.35;;;;;;;17.81;100.00;96400.72;4995195;28;20425;-72
2022/06/05 08:12:26;;;;;;;16.58;10.93;;;;;;;17.74;100.00;96402.22;4995460;28;20707;-72
2022/06/05 08:14:52;;;;;;;15.30;10.82;;;;;;;17.55;100.00;96413.03;4994709;28;20088;-72
2022/06/05 08:17:24;;;;;;;15.57;11.32;;;;;;;17.37;100.00;96413.88;4994575;28;20463;-74
2022/06/05 08:19:50;;;;;;;15.82;11.23;;;;;;;17.30;100.00;96416.94;4996480;28;20041;-74
2022/06/05 08:22:18;;;;;;;16.98;11.05;;;;;;;17.36;100.00;96418.47;4980924;28;20034;-74
2022/06/05 08:24:44;;;;;;;17.27;12.10;;;;;;;17.42;100.00;96422.69;5013555;28;20034;-72
2022/06/05 08:27:13;;;;;;;17.52;12.07;;;;;;;17.35;100.00;96413.31;4994983;28;20045;-73
2022/06/05 08:29:39;;;;;;;15.80;13.32;;;;;;;17.26;100.00;96421.28;4992665;28;20564;-76
2022/06/05 08:32:07;;;;;;;19.13;12.38;;;;;;;17.20;100.00;96419.78;4995603;28;20084;-75
2022/06/05 08:34:32;;;;;;;16.92;13.35;;;;;;;17.21;100.00;96421.38;4997075;28;20052;-74
2022/06/05 08:42:45;;;;;;;18.13;12.35;;;;;;;17.14;100.00;96431.75;4997110;28;20034;-74
2022/06/05 08:45:22;;;;;;;16.35;12.20;;;;;;;16.97;100.00;96438.44;4994599;28;20513;-76
2022/06/05 08:47:55;;;;;;;15.57;12.35;;;;;;;16.83;100.00;96436.75;4996168;28;20133;-74
2022/06/05 08:50:23;;;;;;;16.65;13.18;;;;;;;16.94;100.00;96443.63;4995136;28;20156;-76
2022/06/05 08:53:04;;;;;;;16.92;14.32;;;;;;;17.06;100.00;96443.22;5016262;28;20061;-74
2022/06/05 08:55:42;;;;;;;19.58;13.50;;;;;;;16.95;100.00;96442.50;4997207;28;20638;-74
2022/06/05 08:58:49;;;;;;;17.77;11.77;;;;;;;16.98;100.00;96450.06;5010813;28;20046;-76
2022/06/05 09:01:34;;;;;;;15.65;12.13;;;;;;;16.98;100.00;96445.47;4976343;28;20041;-72
2022/06/05 09:04:20;;;;;;;15.85;12.73;;;;;;;16.88;100.00;96448.28;5011648;28;20041;-74
2022/06/05 09:06:52;;;;;;;18.23;13.52;;;;;;;16.88;100.00;96450.16;4994607;28;20049;-73
2022/06/05 09:09:23;;;;;;;17.33;13.57;;;;;;;16.79;100.00;96458.09;4995358;28;20119;-72
2022/06/05 09:11:58;;;;;;;18.42;14.40;;;;;;;16.95;100.00;96445.22;4997121;28;20473;-72
2022/06/05 09:14:49;;;;;;;19.60;14.30;;;;;;;17.13;100.00;96452.56;4995604;28;20049;-73
2022/06/05 09:17:18;;;;;;;19.48;15.13;;;;;;;17.09;100.00;96451.53;4994173;28;20034;-72
2022/06/05 09:19:45;;;;;;;21.35;15.50;;;;;;;17.11;100.00;96448.53;4993087;28;20046;-73
2022/06/05 09:22:18;;;;;;;19.40;14.90;;;;;;;17.23;100.00;96432.72;4994403;28;20204;-72
2022/06/05 09:24:59;;;;;;;24.90;14.77;;;;;;;17.35;100.00;96424.16;4995348;28;20049;-72
2022/06/05 09:27:33;;;;;;;20.40;14.32;;;;;;;17.54;100.00;96420.34;4991259;28;20034;-72
2022/06/05 09:30:09;;;;;;;18.30;14.75;;;;;;;17.86;100.00;96407.19;4994330;28;20046;-73
2022/06/05 09:32:50;;;;;;;19.20;13.88;;;;;;;17.95;100.00;96408.09;4995186;28;20069;-73
2022/06/05 09:35:29;;;;;;;23.60;14.90;;;;;;;17.94;100.00;96412.72;4992401;28;20042;-74
2022/06/05 09:37:57;;;;;;;23.65;14.70;;;;;;;17.94;100.00;96401.09;4997876;28;20053;-73
2022/06/05 09:40:36;;;;;;;18.17;13.93;;;;;;;17.81;100.00;96405.34;4993380;28;20041;-73
2022/06/05 09:43:34;;;;;;;17.52;15.13;;;;;;;17.62;100.00;96418.09;4995024;28;20050;-75
2022/06/05 09:46:18;;;;;;;19.35;14.50;;;;;;;17.45;100.00;96424.03;4994620;28;20441;-73
2022/06/05 09:48:55;;;;;;;20.48;14.93;;;;;;;17.58;100.00;96417.84;4993840;28;20128;-74
2022/06/05 09:51:21;;;;;;;17.85;14.23;;;;;;;17.78;100.00;96408.66;4994102;28;20046;-73
2022/06/05 09:53:56;;;;;;;20.83;14.25;;;;;;;17.84;100.00;96415.59;4995793;28;20038;-73
2022/06/05 09:58:24;;;;;;;20.40;15.18;;;;;;;17.98;100.00;96410.25;4998166;28;20647;-73
2022/06/05 09:59:28;;;;;;;18.63;12.98;;;;;;;17.97;100.00;96395.88;4991958;28;20038;-74
2022/06/05 10:01:58;;;;;;;19.17;14.63;;;;;;;18.25;100.00;96401.34;4993473;28;20633;-73
2022/06/05 10:04:28;;;;;;;18.65;14.25;;;;;;;18.11;100.00;96398.63;4995172;28;20435;-74
2022/06/05 10:07:06;;;;;;;17.50;14.15;;;;;;;17.91;100.00;96402.50;4996211;28;20034;-73
2022/06/05 10:09:35;;;;;;;20.08;14.02;;;;;;;18.03;100.00;96400.09;4995673;28;20278;-74
2022/06/05 10:12:03;;;;;;;32.28;14.73;;;;;;;18.39;100.00;96385.94;4995361;28;20354;-74
2022/06/05 10:14:50;;;;;;;23.38;14.57;;;;;;;18.47;100.00;96368.97;4993150;28;20041;-75
2022/06/05 10:17:31;;;;;;;17.08;13.55;;;;;;;18.51;100.00;96369.16;4992576;28;20049;-74
2022/06/05 10:20:15;;;;;;;18.08;14.55;;;;;;;18.39;100.00;96358.84;4992789;28;20416;-74
2022/06/05 10:22:44;;;;;;;17.67;13.93;;;;;;;18.61;100.00;96356.25;4995493;28;20045;-75
2022/06/05 10:25:38;;;;;;;20.15;13.98;;;;;;;18.74;100.00;96370.09;4993912;28;20130;-73
2022/06/05 10:28:34;;;;;;;17.20;14.07;;;;;;;18.56;100.00;96369.88;4994319;28;20100;-74
2022/06/05 10:31:07;;;;;;;18.67;13.88;;;;;;;18.70;100.00;96363.69;4994691;28;20054;-74
2022/06/05 10:33:39;;;;;;;16.98;12.95;;;;;;;19.14;100.00;96350.25;4992756;28;20100;-76
2022/06/05 10:36:25;;;;;;;18.73;12.82;;;;;;;19.48;100.00;96335.38;4996178;28;20048;-74
2022/06/05 10:39:14;;;;;;;16.85;13.43;;;;;;;19.42;100.00;96326.53;4993843;28;20085;-73
2022/06/05 10:41:48;;;;;;;22.48;14.50;;;;;;;19.30;100.00;96336.31;5013594;28;20049;-76
2022/06/05 10:44:35;;;;;;;18.08;13.52;;;;;;;18.73;100.00;96335.97;4301913;28;10000773;-75
2022/06/05 10:47:12;;;;;;;21.88;13.88;;;;;;;18.82;100.00;96334.16;4991520;28;20049;-74
2022/06/05 10:49:41;;;;;;;16.92;13.20;;;;;;;18.75;100.00;96339.97;4976506;28;20341;-76
2022/06/05 10:52:25;;;;;;;17.08;12.70;;;;;;;18.97;100.00;96322.97;4991390;28;20333;-74
2022/06/05 10:55:05;;;;;;;17.33;12.85;;;;;;;19.07;100.00;96311.13;4992826;28;20038;-73
2022/06/05 10:57:38;;;;;;;16.10;12.82;;;;;;;18.91;100.00;96307.94;4992340;28;20037;-76
2022/06/05 11:00:22;;;;;;;15.55;12.40;;;;;;;18.88;100.00;96319.38;4993868;28;20128;-74
2022/06/05 11:03:11;;;;;;;15.32;12.52;;;;;;;18.99;100.00;96311.81;4991953;28;20115;-74
2022/06/05 11:05:50;;;;;;;17.17;12.27;;;;;;;19.00;100.00;96308.03;4993230;28;20536;-76
2022/06/05 11:08:44;;;;;;;23.48;12.50;;;;;;;19.22;100.00;96294.47;4989232;28;20624;-74
2022/06/05 11:14:20;;;;;;;14.23;11.98;;;;;;;19.31;100.00;96297.25;4996659;28;20116;-76
2022/06/05 11:17:10;;;;;;;15.98;12.00;;;;;;;19.32;100.00;96288.81;4996718;28;20034;-74
2022/06/05 11:19:48;;;;;;;18.20;12.10;;;;;;;19.59;100.00;96290.59;4996994;28;20456;-74
2022/06/05 11:22:16;;;;;;;17.00;12.23;;;;;;;19.39;100.00;96283.75;4995357;28;20060;-75
2022/06/05 11:24:51;;;;;;;18.10;12.70;;;;;;;19.90;100.00;96265.38;4994550;28;20646;-75
2022/06/05 11:27:33;;;;;;;14.60;12.05;;;;;;;20.20;100.00;96267.25;4991110;28;20045;-74
2022/06/05 11:30:06;;;;;;;18.80;12.10;;;;;;;20.51;100.00;96255.56;4995021;28;20127;-74
2022/06/05 11:32:45;;;;;;;19.08;11.95;;;;;;;20.54;100.00;96255.75;4994548;28;20100;-75
2022/06/05 11:35:26;;;;;;;15.00;11.70;;;;;;;20.21;100.00;96257.19;4994850;28;20072;-74
2022/06/05 11:38:21;;;;;;;16.20;11.77;;;;;;;20.08;100.00;96256.22;4997833;28;20108;-76
2022/06/05 11:40:57;;;;;;;17.63;12.68;;;;;;;19.52;100.00;96246.78;4996297;28;20069;-74
2022/06/05 11:43:32;;;;;;;14.15;11.45;;;;;;;19.55;100.00;96259.75;4994032;28;20050;-76
2022/06/05 11:46:06;;;;;;;14.75;11.82;;;;;;;19.76;100.00;96260.03;4995158;28;20610;-73
2022/06/05 11:48:40;;;;;;;16.88;12.32;;;;;;;19.71;100.00;96257.47;4993136;28;20119;-76